createdAt,value
2019-02-03T00:01:12.732Z,4.60
2019-02-03T00:03:48.114Z,4.60
2019-02-03T00:06:22.501Z,4.60
2019-02-03T00:08:54.384Z,4.60
2019-02-03T00:11:20.828Z,4.60
2019-02-03T00:13:52.820Z,4.50
2019-02-03T00:16:18.823Z,4.40
2019-02-03T00:18:48.796Z,4.40
2019-02-03T00:21:17.022Z,4.40
2019-02-03T00:23:45.472Z,4.30
2019-02-03T00:26:17.551Z,4.30
2019-02-03T00:28:52.157Z,4.40
2019-02-03T00:31:20.313Z,4.50
2019-02-03T00:33:53.195Z,4.40
2019-02-03T00:36:45.257Z,4.50
2019-02-03T00:39:22.665Z,4.50
2019-02-03T00:41:48.914Z,4.40
2019-02-03T00:44:18.668Z,4.30
2019-02-03T00:46:45.063Z,4.30
2019-02-03T00:49:13.191Z,4.30
2019-02-03T00:51:50.511Z,4.10
2019-02-03T00:54:17.962Z,4.10
2019-02-03T00:56:49.590Z,4.00
2019-02-03T00:59:25.876Z,4.00
2019-02-03T01:01:52.113Z,4.00
2019-02-03T01:04:20.388Z,4.00
2019-02-03T01:06:46.616Z,4.00
2019-02-03T01:09:17.823Z,3.90
2019-02-03T01:11:46.046Z,3.90
2019-02-03T01:14:14.795Z,3.90
2019-02-03T01:16:57.133Z,3.90
2019-02-03T01:19:26.777Z,3.80
2019-02-03T01:22:05.120Z,3.70
2019-02-03T01:24:32.235Z,3.80
2019-02-03T01:26:58.648Z,3.90
2019-02-03T01:29:27.044Z,3.90
2019-02-03T01:31:54.091Z,3.80
2019-02-03T01:34:20.544Z,3.80
2019-02-03T01:36:58.741Z,3.90
2019-02-03T01:39:31.125Z,3.80
2019-02-03T01:41:59.207Z,3.90
2019-02-03T01:47:06.972Z,3.70
2019-02-03T01:49:36.282Z,3.60
2019-02-03T01:52:04.560Z,3.70
2019-02-03T01:54:31.698Z,3.70
2019-02-03T01:57:01.000Z,3.70
2019-02-03T01:59:27.288Z,3.60
2019-02-03T02:02:10.434Z,3.70
2019-02-03T02:04:46.211Z,3.60
2019-02-03T02:07:22.519Z,3.80
2019-02-03T02:09:57.009Z,3.80
2019-02-03T02:12:23.173Z,3.70
2019-02-03T02:14:51.420Z,3.50
2019-02-03T02:17:25.727Z,3.40
2019-02-03T02:19:53.018Z,3.50
2019-02-03T02:22:25.713Z,3.50
2019-02-03T02:24:56.289Z,3.40
2019-02-03T02:27:36.852Z,3.40
2019-02-03T02:30:13.887Z,3.40
2019-02-03T02:32:42.568Z,3.30
2019-02-03T02:35:22.465Z,3.40
2019-02-03T02:38:06.864Z,3.30
2019-02-03T02:41:00.768Z,3.40
2019-02-03T02:43:38.014Z,3.40
2019-02-03T02:46:04.207Z,3.70
2019-02-03T02:48:30.392Z,3.70
2019-02-03T02:51:06.178Z,3.50
2019-02-03T02:53:32.536Z,3.50
2019-02-03T02:56:04.036Z,3.50
2019-02-03T02:58:30.241Z,3.40
2019-02-03T03:00:57.831Z,3.40
2019-02-03T03:03:32.905Z,3.40
2019-02-03T03:06:01.250Z,3.40
2019-02-03T03:08:35.686Z,3.40
2019-02-03T03:11:08.394Z,3.40
2019-02-03T03:13:40.655Z,3.30
2019-02-03T03:16:07.261Z,3.40
2019-02-03T03:18:37.770Z,3.40
2019-02-03T03:21:12.540Z,3.40
2019-02-03T03:23:40.738Z,3.40
2019-02-03T03:26:14.210Z,3.40
2019-02-03T03:28:41.343Z,3.30
2019-02-03T03:31:16.586Z,3.40
2019-02-03T03:33:42.941Z,3.40
2019-02-03T03:36:12.318Z,3.40
2019-02-03T03:38:42.456Z,3.30
2019-02-03T03:41:16.076Z,3.30
2019-02-03T03:43:43.248Z,3.30
2019-02-03T03:46:10.470Z,3.30
2019-02-03T03:48:39.914Z,3.40
2019-02-03T03:51:15.099Z,3.40
2019-02-03T03:53:55.387Z,3.40
2019-02-03T03:56:24.557Z,3.40
2019-02-03T03:58:50.680Z,3.30
2019-02-03T04:01:22.963Z,3.30
2019-02-03T04:03:53.284Z,3.30
2019-02-03T04:06:20.748Z,3.30
2019-02-03T04:08:50.025Z,3.30
2019-02-03T04:11:16.490Z,3.40
2019-02-03T04:13:44.666Z,3.30
2019-02-03T04:16:10.728Z,3.30
2019-02-03T04:18:41.610Z,3.40
2019-02-03T04:21:11.298Z,3.40
2019-02-03T04:23:44.607Z,3.40
2019-02-03T04:26:13.889Z,3.40
2019-02-03T04:28:58.304Z,3.40
2019-02-03T04:31:31.182Z,3.30
2019-02-03T04:34:05.463Z,3.30
2019-02-03T04:36:40.709Z,3.30
2019-02-03T04:39:15.392Z,3.20
2019-02-03T04:41:42.625Z,3.20
2019-02-03T04:44:13.011Z,3.20
2019-02-03T04:46:39.153Z,3.20
2019-02-03T04:49:11.725Z,3.20
2019-02-03T04:51:49.389Z,3.20
2019-02-03T04:54:15.480Z,3.10
2019-02-03T04:56:49.019Z,3.20
2019-02-03T04:59:27.516Z,3.20
2019-02-03T05:02:01.016Z,3.30
2019-02-03T05:04:48.702Z,3.20
2019-02-03T05:07:20.673Z,3.10
2019-02-03T05:09:59.080Z,3.00
2019-02-03T05:12:27.653Z,3.10
2019-02-03T05:14:54.905Z,3.10
2019-02-03T05:17:25.132Z,3.20
2019-02-03T05:19:51.317Z,3.10
2019-02-03T05:22:23.703Z,3.10
2019-02-03T05:24:49.772Z,3.10
2019-02-03T05:27:17.557Z,3.20
2019-02-03T05:29:53.820Z,3.10
2019-02-03T05:32:22.102Z,3.10
2019-02-03T05:34:48.306Z,3.20
2019-02-03T05:37:18.770Z,3.20
2019-02-03T05:39:52.739Z,3.20
2019-02-03T05:42:29.129Z,3.20
2019-02-03T05:45:00.654Z,3.30
2019-02-03T05:47:45.423Z,3.30
2019-02-03T05:50:18.492Z,3.20
2019-02-03T05:52:45.709Z,3.20
2019-02-03T05:55:24.967Z,3.10
2019-02-03T05:57:52.160Z,3.10
2019-02-03T06:00:32.537Z,3.10
2019-02-03T06:03:08.306Z,3.10
2019-02-03T06:05:34.644Z,3.00
2019-02-03T06:08:02.052Z,3.00
2019-02-03T06:10:31.056Z,3.00
2019-02-03T06:12:57.570Z,2.90
2019-02-03T06:15:36.141Z,3.00
2019-02-03T06:18:05.407Z,2.90
2019-02-03T06:20:43.841Z,3.00
2019-02-03T06:23:11.973Z,3.00
2019-02-03T06:25:49.121Z,2.90
2019-02-03T06:28:16.465Z,2.90
2019-02-03T06:30:56.256Z,2.90
2019-02-03T06:33:24.560Z,2.80
2019-02-03T06:35:54.783Z,2.80
2019-02-03T06:38:23.277Z,2.80
2019-02-03T06:40:58.096Z,2.90
2019-02-03T06:43:36.579Z,2.90
2019-02-03T06:46:15.384Z,2.90
2019-02-03T06:48:42.629Z,2.90
2019-02-03T06:51:16.513Z,2.90
2019-02-03T06:53:55.882Z,2.90
2019-02-03T06:56:23.095Z,2.90
2019-02-03T06:58:56.882Z,2.90
2019-02-03T07:01:22.613Z,2.90
2019-02-03T07:03:49.722Z,3.00
2019-02-03T07:06:24.891Z,2.90
2019-02-03T07:08:53.371Z,2.90
2019-02-03T07:11:31.706Z,2.90
2019-02-03T07:14:01.104Z,2.90
2019-02-03T07:16:40.486Z,2.90
2019-02-03T07:19:04.792Z,2.90
2019-02-03T07:21:53.624Z,2.90
2019-02-03T07:24:26.527Z,3.00
2019-02-03T07:26:54.034Z,3.10
2019-02-03T07:29:20.322Z,3.00
2019-02-03T07:31:48.784Z,3.00
2019-02-03T07:34:23.791Z,3.00
2019-02-03T07:36:51.190Z,3.20
2019-02-03T07:39:30.871Z,3.30
2019-02-03T07:42:03.911Z,3.10
2019-02-03T07:44:31.061Z,3.10
2019-02-03T07:46:58.551Z,3.10
2019-02-03T07:49:30.616Z,3.20
2019-02-03T07:51:58.744Z,3.10
2019-02-03T07:54:31.749Z,3.10
2019-02-03T07:57:01.920Z,3.10
2019-02-03T07:59:29.029Z,3.20
2019-02-03T08:01:55.277Z,3.20
2019-02-03T08:04:25.351Z,3.20
2019-02-03T08:07:02.781Z,3.30
2019-02-03T08:09:47.712Z,3.30
2019-02-03T08:12:17.253Z,3.40
2019-02-03T08:14:50.729Z,3.60
2019-02-03T08:17:23.101Z,3.90
2019-02-03T08:20:10.923Z,4.10
2019-02-03T08:22:44.424Z,4.00
2019-02-03T08:25:24.982Z,4.10
2019-02-03T08:27:51.282Z,4.20
2019-02-03T08:30:29.987Z,4.10
2019-02-03T08:32:57.412Z,4.20
2019-02-03T08:35:29.762Z,4.20
2019-02-03T08:38:01.924Z,4.30
2019-02-03T08:40:37.194Z,4.20
2019-02-03T08:43:10.167Z,4.30
2019-02-03T08:45:38.493Z,4.30
2019-02-03T08:48:04.792Z,4.20
2019-02-03T08:50:32.395Z,4.30
2019-02-03T08:53:01.527Z,4.20
2019-02-03T08:55:29.758Z,4.10
2019-02-03T08:58:01.683Z,4.20
2019-02-03T09:00:42.428Z,4.10
2019-02-03T09:03:20.143Z,4.00
2019-02-03T09:05:46.434Z,3.90
2019-02-03T09:08:44.971Z,3.80
2019-02-03T09:11:11.839Z,3.90
2019-02-03T09:13:44.928Z,3.90
2019-02-03T09:16:12.133Z,3.70
2019-02-03T09:18:43.792Z,3.70
2019-02-03T09:21:10.215Z,3.70
2019-02-03T09:23:37.242Z,3.70
2019-02-03T09:26:08.601Z,3.60
2019-02-03T09:28:38.374Z,3.60
2019-02-03T09:31:04.519Z,3.60
2019-02-03T09:33:30.676Z,3.60
2019-02-03T09:36:08.099Z,3.60
2019-02-03T09:38:38.953Z,3.60
2019-02-03T09:41:05.338Z,3.80
2019-02-03T09:43:31.945Z,4.00
2019-02-03T09:46:01.615Z,4.10
2019-02-03T09:48:27.884Z,4.20
2019-02-03T09:50:56.114Z,4.30
2019-02-03T09:53:23.418Z,4.20
2019-02-03T09:55:54.899Z,4.10
2019-02-03T09:58:32.498Z,4.20
2019-02-03T10:01:00.873Z,4.10
2019-02-03T10:03:36.310Z,4.00
2019-02-03T10:06:05.233Z,4.00
2019-02-03T10:08:40.311Z,3.90
2019-02-03T10:11:11.707Z,3.90
2019-02-03T10:13:31.202Z,3.90
2019-02-03T10:16:09.633Z,3.80
2019-02-03T10:18:36.627Z,3.80
2019-02-03T10:21:08.961Z,3.90
2019-02-03T10:23:41.051Z,4.00
2019-02-03T10:26:09.621Z,4.00
2019-02-03T10:28:37.962Z,4.00
2019-02-03T10:31:06.837Z,3.90
2019-02-03T10:33:35.262Z,4.00
2019-02-03T10:36:10.515Z,4.10
2019-02-03T10:38:43.811Z,4.00
2019-02-03T10:41:23.686Z,4.00
2019-02-03T10:43:48.760Z,4.20
2019-02-03T10:46:19.022Z,4.30
2019-02-03T10:48:51.890Z,4.30
2019-02-03T10:51:20.370Z,4.30
2019-02-03T10:53:46.541Z,4.30
2019-02-03T10:56:19.097Z,4.30
2019-02-03T10:59:00.976Z,4.30
2019-02-03T11:01:27.305Z,4.30
2019-02-03T11:04:18.286Z,4.30
2019-02-03T11:06:47.711Z,4.30
2019-02-03T11:09:21.175Z,4.10
2019-02-03T11:11:52.585Z,4.10
2019-02-03T11:14:54.913Z,4.20
2019-02-03T11:17:31.521Z,4.20
2019-02-03T11:20:22.696Z,4.30
2019-02-03T11:22:52.328Z,4.30
2019-02-03T11:25:39.081Z,4.30
2019-02-03T11:28:11.428Z,4.40
2019-02-03T11:30:51.267Z,4.20
2019-02-03T11:33:25.373Z,4.20
2019-02-03T11:36:04.099Z,4.20
2019-02-03T11:38:30.678Z,4.20
2019-02-03T11:41:14.822Z,4.30
2019-02-03T11:43:48.796Z,4.30
2019-02-03T11:46:19.017Z,4.30
2019-02-03T11:48:45.660Z,4.30
2019-02-03T11:51:37.206Z,4.30
2019-02-03T11:54:23.736Z,4.20
2019-02-03T11:56:51.334Z,4.20
2019-02-03T11:59:25.150Z,4.10
2019-02-03T12:02:10.054Z,4.10
2019-02-03T12:04:43.306Z,4.10
2019-02-03T12:07:12.617Z,4.10
2019-02-03T12:09:39.811Z,4.20
2019-02-03T12:12:25.836Z,4.20
2019-02-03T12:14:58.526Z,4.20
2019-02-03T12:17:52.249Z,4.10
2019-02-03T12:20:32.011Z,4.10
2019-02-03T12:23:09.414Z,4.00
2019-02-03T12:25:44.509Z,4.00
2019-02-03T12:28:11.878Z,4.10
2019-02-03T12:30:38.524Z,4.10
2019-02-03T12:33:06.538Z,4.00
2019-02-03T12:35:42.561Z,4.00
2019-02-03T12:38:18.284Z,4.10
2019-02-03T12:41:00.668Z,4.10
2019-02-03T12:43:26.986Z,4.20
2019-02-03T12:45:53.330Z,4.20
2019-02-03T12:48:38.045Z,4.20
2019-02-03T12:51:06.049Z,4.30
2019-02-03T12:53:40.270Z,4.30
2019-02-03T12:56:07.552Z,4.20
2019-02-03T12:58:42.129Z,4.20
2019-02-03T13:01:32.141Z,4.10
2019-02-03T13:04:03.539Z,4.10
2019-02-03T13:06:42.872Z,4.10
2019-02-03T13:09:16.662Z,4.10
2019-02-03T13:11:42.751Z,4.10
2019-02-03T13:14:09.386Z,4.20
2019-02-03T13:16:37.659Z,4.20
2019-02-03T13:19:05.937Z,4.20
2019-02-03T13:21:34.284Z,4.20
2019-02-03T13:24:03.828Z,4.20
2019-02-03T13:26:37.246Z,4.20
2019-02-03T13:29:09.447Z,4.20
2019-02-03T13:31:36.596Z,4.20
2019-02-03T13:34:03.101Z,4.30
2019-02-03T13:36:29.595Z,4.30
2019-02-03T13:39:06.827Z,4.40
2019-02-03T13:41:41.196Z,4.40
2019-02-03T13:44:10.902Z,4.40
2019-02-03T13:46:37.029Z,4.40
2019-02-03T13:49:03.569Z,4.40
2019-02-03T13:51:31.740Z,4.50
2019-02-03T13:53:59.043Z,4.60
2019-02-03T13:56:27.682Z,4.60
2019-02-03T13:58:53.597Z,4.50
2019-02-03T14:01:39.595Z,4.50
2019-02-03T14:04:05.868Z,4.60
2019-02-03T14:09:27.633Z,4.70
2019-02-03T14:12:09.109Z,4.70
2019-02-03T14:14:55.479Z,4.70
2019-02-03T14:17:36.083Z,4.70
2019-02-03T14:23:28.153Z,4.60
2019-02-03T14:26:13.975Z,4.70
2019-02-03T14:29:22.244Z,4.60
2019-02-03T19:19:24.869Z,4.30
2019-02-03T19:21:51.914Z,4.30
2019-02-03T19:24:18.213Z,4.40
2019-02-03T19:26:44.497Z,4.40
2019-02-03T19:29:16.237Z,4.40
2019-02-03T19:31:42.384Z,4.50
2019-02-03T19:34:13.594Z,4.50
2019-02-03T19:36:39.619Z,4.50
2019-02-03T19:39:07.922Z,4.50
2019-02-03T19:41:34.356Z,4.50
2019-02-03T19:44:00.371Z,4.50
2019-02-03T19:46:26.394Z,4.50
2019-02-03T19:48:52.438Z,4.50
2019-02-03T19:51:18.489Z,4.50
2019-02-03T19:53:44.535Z,4.60
2019-02-03T19:56:10.547Z,4.60
2019-02-03T19:58:36.585Z,4.60
2019-02-03T20:02:07.880Z,4.60
2019-02-03T20:04:33.941Z,4.50
2019-02-03T20:06:59.979Z,4.50
2019-02-03T20:09:27.197Z,4.50
2019-02-03T20:11:53.287Z,4.40
2019-02-03T20:14:20.475Z,4.40
2019-02-03T20:16:46.539Z,4.50
2019-02-03T20:19:12.559Z,4.50
2019-02-03T20:21:38.657Z,4.50
2019-02-03T20:24:05.012Z,4.50
2019-02-03T20:26:31.559Z,4.50
2019-02-03T20:28:59.071Z,4.50
2019-02-03T20:31:25.129Z,4.60
2019-02-03T20:33:51.193Z,4.50
2019-02-03T20:36:17.531Z,4.60
2019-02-03T20:38:45.744Z,4.50
2019-02-03T20:41:11.954Z,4.50
2019-02-03T20:43:38.387Z,4.50
2019-02-03T20:46:04.763Z,4.50
2019-02-03T20:48:30.856Z,4.50
2019-02-03T20:50:56.944Z,4.60
2019-02-03T20:53:22.964Z,4.50
2019-02-03T20:55:49.143Z,4.50
2019-02-03T20:58:15.302Z,4.50
2019-02-03T21:00:41.538Z,4.50
2019-02-03T21:03:07.611Z,4.40
2019-02-03T21:05:34.056Z,4.40
2019-02-03T21:08:00.216Z,4.40
2019-02-03T21:10:26.405Z,4.40
2019-02-03T21:12:54.472Z,4.30
2019-02-03T21:15:33.031Z,4.30
2019-02-03T21:17:50.758Z,4.40
2019-02-03T21:20:21.560Z,4.30
2019-02-03T21:22:48.911Z,4.30
2019-02-03T21:25:16.376Z,4.30
2019-02-03T21:27:42.627Z,4.30
2019-02-03T21:30:18.602Z,4.30
2019-02-03T21:32:44.888Z,4.30
2019-02-03T21:35:11.132Z,4.30
2019-02-03T21:37:38.321Z,4.20
2019-02-03T21:40:08.226Z,4.20
2019-02-03T21:42:34.559Z,4.20
2019-02-03T21:45:00.687Z,4.20
2019-02-03T21:47:26.755Z,4.20
2019-02-03T21:49:53.605Z,4.10
2019-02-03T21:52:19.802Z,4.10
2019-02-03T21:54:45.828Z,4.00
2019-02-03T21:57:14.468Z,4.00
2019-02-03T21:59:40.117Z,4.00
2019-02-03T22:02:06.263Z,3.90
2019-02-03T22:04:32.316Z,3.90
2019-02-03T22:06:58.386Z,4.00
2019-02-03T22:09:24.501Z,4.00
2019-02-03T22:11:50.957Z,3.90
2019-02-03T22:14:17.003Z,3.90
2019-02-03T22:16:42.985Z,3.90
2019-02-03T22:19:09.015Z,3.90
2019-02-03T22:21:35.085Z,3.90
2019-02-03T22:24:02.538Z,3.90
2019-02-03T22:26:29.383Z,3.80
2019-02-03T22:28:57.135Z,3.80
2019-02-03T22:31:23.271Z,3.80
2019-02-03T22:33:49.692Z,3.80
2019-02-03T22:36:15.748Z,3.80
2019-02-03T22:38:44.608Z,3.80
2019-02-03T22:41:10.691Z,4.20
2019-02-03T22:43:37.089Z,4.20
2019-02-03T22:46:07.262Z,4.20
2019-02-03T22:48:31.586Z,4.10
2019-02-03T22:50:57.655Z,4.00
2019-02-03T22:53:23.760Z,4.10
2019-02-03T22:55:49.836Z,4.00
2019-02-03T22:58:16.010Z,3.90
2019-02-03T23:00:51.801Z,3.90
2019-02-03T23:03:20.197Z,3.90
2019-02-03T23:05:47.593Z,3.90
2019-02-03T23:08:13.660Z,3.80
2019-02-03T23:10:39.949Z,3.80
2019-02-03T23:13:06.983Z,3.90
2019-02-03T23:15:33.143Z,3.90
2019-02-03T23:17:59.644Z,3.90
2019-02-03T23:20:25.668Z,3.80
2019-02-03T23:22:51.731Z,3.80
2019-02-03T23:25:17.770Z,3.80
2019-02-03T23:27:43.843Z,3.90
2019-02-03T23:30:15.372Z,3.80
2019-02-03T23:32:45.560Z,3.90
2019-02-03T23:35:12.142Z,3.90
2019-02-03T23:37:39.334Z,3.80
2019-02-03T23:40:13.494Z,3.80
2019-02-03T23:42:39.534Z,3.80
2019-02-03T23:45:11.296Z,3.80
2019-02-03T23:47:37.364Z,3.70
2019-02-03T23:50:15.302Z,3.70
2019-02-03T23:52:41.419Z,3.70
2019-02-03T23:55:08.823Z,3.60
2019-02-03T23:57:35.276Z,3.60
